Hauptseite
METAR-TAF:

METAR-TAF

Flughäfen :

Queen Alia International Airport

Amman-Queen Alia, Jordanien

Breite: 31-40N, Länge: 035-58E, Höhe: 721 m

Beobachtung

Neuester Wetterbericht von vor 1 Stunde und 31 Minuten, um 21:00 UTC
Windstille
Temperatur 2°C
Luftfeuchtigkeit 87%
Luftdruck 1029 hPa
Sichtweite: 8000 m

METAR: OJAI 252100Z 00000KT 8000 NSC 02/00 Q1029 NOSIG

Zeit: 00:31 (22:31 UTC)

Prognose

Neuester Wetterbericht von vor 5 Stunden und 31 Minuten, um 17:00 UTC
Gültige Prognose vom 25 um 18 UTC bis 26 um 24 UTC
Wind 4 kt aus West
Sichtweite: 8000 m
Aufgelockert bewölkt in der Höhe von 3000 ft
Wahrscheinlichkeit 40%
vom 26 um 00 UTC bis 26 um 07 UTC
Sichtweite: 4000 m
feuchter Dunst
Übergehend zu
vom 26 um 07 UTC bis 26 um 09 UTC
Wind 8 kt aus West/Nordwest
Sichtweite: 6000 m

TAF: OJAI 251700Z 2518/2624 27004KT 8000 SCT030 PROB40 2600/2607 4000 BR BECMG 2607/2609 29008KT 6000 NSC

Wetterbeobachtungen und Prognosen von mehr als 4000 Flughäfen (METAR und TAF Bericht).

Die verfügbaren Stationen werden durch gelbe und rote Markierungen auf der Karte dargestellt.

Führen Sie die Maus auf sie, um den Namen der Station zu sehen.

Darauf klicken, um die Beobachtung von Wetterbeobachtungen und Prognosen zu sehen.

Um die Karte zu ändern : klicken Sie auf den grünen Tasten mit einem schwarzen Kreuz Zum Vergrößern, auf den grünen Button mit einem Gedankenstrich zu verkleinern, oder auf die grünen Pfeile für benachbarte Karten.


METAR-TAF: